Time;durP1;ratioP1;P1;durP2;ratioP2;P2;SDS_P1;SDS_P2;PMS_P1;PMS_P2;Temp;Humidity;BMP_temperature;BMP_pressure;BME280_temperature;BME280_humidity;BME280_pressure;Samples;Min_cycle;Max_cycle;Signal;HPM_P1;HPM_P2
2021/09/14 00:00:09;;;;;;;8.98;5.65;;;18.00;92.90;;;;;;5008268;28;20028;-86
2021/09/14 00:02:34;;;;;;;7.32;5.57;;;18.00;93.00;;;;;;5028872;28;20045;-85
2021/09/14 00:05:00;;;;;;;7.53;5.47;;;18.00;93.10;;;;;;5047473;28;20029;-85
2021/09/14 00:07:27;;;;;;;8.57;5.95;;;18.00;93.00;;;;;;5030386;28;20428;-86
2021/09/14 00:09:55;;;;;;;7.55;5.80;;;17.90;93.00;;;;;;5046150;28;20543;-85
2021/09/14 00:12:22;;;;;;;8.50;6.32;;;17.90;93.00;;;;;;5045165;28;20028;-84
2021/09/14 00:14:48;;;;;;;13.30;6.50;;;17.90;93.10;;;;;;5035052;28;20093;-88
2021/09/14 00:17:16;;;;;;;9.73;6.63;;;17.90;93.10;;;;;;5037261;28;20060;-87
2021/09/14 00:19:42;;;;;;;9.25;6.57;;;17.90;93.20;;;;;;5045961;28;20044;-87
2021/09/14 00:22:07;;;;;;;9.32;6.63;;;17.80;93.20;;;;;;5029012;28;20033;-87
2021/09/14 00:24:33;;;;;;;9.90;6.40;;;17.80;93.20;;;;;;5020653;28;20025;-88
2021/09/14 00:26:59;;;;;;;8.60;6.05;;;17.80;93.20;;;;;;5008483;28;20051;-86
2021/09/14 00:29:24;;;;;;;9.23;6.70;;;17.80;93.20;;;;;;5033846;28;20041;-88
2021/09/14 00:31:50;;;;;;;8.00;6.28;;;17.80;93.20;;;;;;5020967;28;20064;-88
2021/09/14 00:34:16;;;;;;;8.82;6.43;;;17.70;93.20;;;;;;5054221;28;20028;-87
2021/09/14 00:36:41;;;;;;;10.00;6.50;;;17.70;93.30;;;;;;5020762;28;20021;-87
2021/09/14 00:39:07;;;;;;;15.30;7.63;;;17.70;93.30;;;;;;5036632;28;20082;-86
2021/09/14 00:41:32;;;;;;;9.38;6.70;;;17.70;93.40;;;;;;5036373;28;20037;-85
2021/09/14 00:44:00;;;;;;;9.00;6.80;;;17.60;93.40;;;;;;5038486;28;20033;-87
2021/09/14 00:46:26;;;;;;;11.23;6.72;;;17.60;93.40;;;;;;5053878;28;20440;-87
2021/09/14 00:48:52;;;;;;;10.00;7.32;;;17.60;93.50;;;;;;5054446;28;20108;-87
2021/09/14 00:51:18;;;;;;;8.48;6.90;;;17.60;93.50;;;;;;5036140;28;20021;-87
2021/09/14 00:53:47;;;;;;;8.73;6.68;;;17.60;93.50;;;;;;5036447;28;20052;-86
2021/09/14 00:56:13;;;;;;;9.68;6.25;;;17.50;93.50;;;;;;5036483;28;20048;-86
2021/09/14 00:58:38;;;;;;;10.48;6.65;;;17.50;93.50;;;;;;5020276;28;20033;-87
2021/09/14 01:01:04;;;;;;;10.18;6.70;;;17.50;93.50;;;;;;5020381;28;20037;-88
2021/09/14 01:03:30;;;;;;;8.77;7.20;;;17.50;93.80;;;;;;5019952;28;20493;-86
2021/09/14 01:05:56;;;;;;;11.63;6.72;;;17.50;93.60;;;;;;5022136;28;20033;-86
2021/09/14 01:08:22;;;;;;;11.07;7.68;;;17.50;93.60;;;;;;5036584;28;20032;-85
2021/09/14 01:10:48;;;;;;;9.10;6.72;;;17.40;93.60;;;;;;5033482;28;20049;-86
2021/09/14 01:13:14;;;;;;;11.82;6.93;;;17.40;93.60;;;;;;5063636;28;20054;-86
2021/09/14 01:15:40;;;;;;;10.05;7.15;;;17.40;93.70;;;;;;5040679;28;20017;-91
2021/09/14 01:18:05;;;;;;;9.35;6.88;;;17.40;93.70;;;;;;5060693;28;20010;-88
2021/09/14 01:20:31;;;;;;;8.52;6.88;;;17.30;93.70;;;;;;5035462;28;20033;-86
2021/09/14 01:22:57;;;;;;;9.82;7.30;;;17.30;93.70;;;;;;5044089;28;20037;-87
2021/09/14 01:25:24;;;;;;;9.73;7.38;;;17.30;93.80;;;;;;5043656;28;20036;-88
2021/09/14 01:27:51;;;;;;;9.27;6.55;;;17.30;93.80;;;;;;5036714;28;20378;-85
2021/09/14 01:30:21;;;;;;;9.82;6.85;;;17.30;93.80;;;;;;5034353;28;20457;-85
2021/09/14 01:32:53;;;;;;;10.10;6.85;;;17.30;93.90;;;;;;5036073;28;20024;-85
2021/09/14 01:35:25;;;;;;;10.15;7.07;;;17.20;93.90;;;;;;5035544;28;20029;-84
2021/09/14 01:37:51;;;;;;;8.95;6.95;;;17.30;93.90;;;;;;5055202;28;20116;-86
2021/09/14 01:40:17;;;;;;;9.93;7.03;;;17.20;93.90;;;;;;5040495;28;20060;-85
2021/09/14 01:42:43;;;;;;;10.93;7.63;;;17.20;93.90;;;;;;5036019;28;20527;-86
2021/09/14 01:45:10;;;;;;;13.77;7.78;;;17.20;93.90;;;;;;5020486;28;20124;-86
2021/09/14 01:47:36;;;;;;;10.93;7.72;;;17.20;93.90;;;;;;5035250;28;20120;-86
2021/09/14 01:50:03;;;;;;;10.48;7.45;;;17.20;94.00;;;;;;5021608;28;20184;-85
2021/09/14 01:52:31;;;;;;;11.95;8.05;;;17.10;94.00;;;;;;5035122;28;20190;-85
2021/09/14 01:54:57;;;;;;;9.93;7.25;;;17.10;94.00;;;;;;5021468;28;20051;-87
2021/09/14 01:57:27;;;;;;;9.10;7.05;;;17.10;94.00;;;;;;5005855;28;20024;-85
2021/09/14 01:59:55;;;;;;;12.70;7.13;;;17.10;94.10;;;;;;5037103;28;20382;-85
2021/09/14 02:05:00;;;;;;;11.10;7.32;;;17.10;94.10;;;;;;5053286;28;20339;-84
2021/09/14 02:59:03;;;;;;;11.15;8.23;;;16.70;94.40;;;;;;5042146;28;20090;-86
2021/09/14 03:01:29;;;;;;;11.73;8.35;;;16.70;94.40;;;;;;5055421;28;20107;-85
2021/09/14 03:03:56;;;;;;;11.80;8.57;;;16.60;94.50;;;;;;5056062;28;20029;-86
2021/09/14 03:06:24;;;;;;;10.73;8.07;;;16.60;94.50;;;;;;5022934;28;20031;-86
2021/09/14 03:08:49;;;;;;;12.68;9.05;;;16.60;94.50;;;;;;5055723;28;20121;-85
2021/09/14 03:11:18;;;;;;;11.63;8.15;;;16.60;94.50;;;;;;5038696;28;20477;-86
2021/09/14 03:13:44;;;;;;;11.43;8.98;;;16.60;94.40;;;;;;5034103;28;20022;-86
2021/09/14 03:16:11;;;;;;;13.32;9.32;;;16.60;94.50;;;;;;5028582;28;20449;-86
2021/09/14 03:18:39;;;;;;;12.07;8.80;;;16.60;94.50;;;;;;5055060;28;20022;-85
2021/09/14 03:21:07;;;;;;;14.45;8.98;;;16.60;94.60;;;;;;5027241;28;20033;-85
2021/09/14 03:23:34;;;;;;;14.88;9.18;;;16.50;94.60;;;;;;5056287;28;20104;-86
2021/09/14 03:26:00;;;;;;;12.32;9.15;;;16.50;94.80;;;;;;5032002;28;20060;-85
2021/09/14 03:28:26;;;;;;;14.07;10.18;;;16.50;94.60;;;;;;5032006;28;20029;-84
2021/09/14 03:30:52;;;;;;;12.57;9.30;;;16.50;94.70;;;;;;5055960;28;20043;-86
2021/09/14 03:33:18;;;;;;;13.02;9.13;;;16.50;94.70;;;;;;5032132;28;20056;-85
2021/09/14 03:35:44;;;;;;;11.00;8.90;;;16.40;94.70;;;;;;5034981;28;20480;-85
2021/09/14 03:38:11;;;;;;;13.60;9.57;;;16.40;94.70;;;;;;5037398;28;20120;-85
2021/09/14 03:40:39;;;;;;;14.65;9.32;;;16.40;94.70;;;;;;5021301;28;20059;-85
2021/09/14 03:43:05;;;;;;;11.63;9.18;;;16.40;94.80;;;;;;5037771;28;20029;-85
2021/09/14 03:45:31;;;;;;;16.75;9.93;;;16.40;94.80;;;;;;5021258;28;20497;-84
2021/09/14 03:47:56;;;;;;;11.85;9.48;;;16.30;94.80;;;;;;5037875;28;20037;-87
2021/09/14 03:50:22;;;;;;;14.73;10.25;;;16.30;94.80;;;;;;5037409;28;20060;-85
2021/09/14 03:52:48;;;;;;;15.27;10.38;;;16.30;94.80;;;;;;5024021;28;20179;-85
2021/09/14 03:55:14;;;;;;;13.18;10.23;;;16.40;94.80;;;;;;5009189;28;20030;-83
2021/09/14 03:57:39;;;;;;;13.13;9.45;;;16.30;94.80;;;;;;5019566;28;20139;-85
2021/09/14 04:00:06;;;;;;;14.80;9.90;;;16.30;94.80;;;;;;5020954;28;20476;-85
2021/09/14 04:02:38;;;;;;;13.15;9.82;;;16.30;94.80;;;;;;5071280;28;20473;-86
2021/09/14 04:10:17;;;;;;;14.50;10.20;;;16.30;94.90;;;;;;5038086;28;20488;-87
2021/09/14 04:12:43;;;;;;;15.18;10.02;;;16.20;95.00;;;;;;5037052;28;20025;-85
2021/09/14 04:15:09;;;;;;;13.48;9.70;;;16.20;94.90;;;;;;5020807;28;20031;-86
2021/09/14 04:17:35;;;;;;;13.50;10.57;;;16.20;94.90;;;;;;5039787;28;20093;-85
2021/09/14 04:20:01;;;;;;;16.25;10.70;;;16.20;95.00;;;;;;5037374;28;20111;-86
2021/09/14 04:22:26;;;;;;;12.70;10.20;;;16.20;95.00;;;;;;5055246;28;20487;-86
2021/09/14 04:24:52;;;;;;;14.18;10.60;;;16.10;95.00;;;;;;5033201;28;20026;-87
2021/09/14 04:27:18;;;;;;;12.75;10.57;;;16.20;95.00;;;;;;5018085;28;20034;-85
2021/09/14 04:29:47;;;;;;;15.43;10.95;;;16.10;94.90;;;;;;5039084;28;20045;-84
2021/09/14 04:32:17;;;;;;;14.63;10.15;;;16.10;95.00;;;;;;5057532;28;20032;-87
2021/09/14 04:34:43;;;;;;;13.80;10.85;;;16.10;95.00;;;;;;5028602;28;20040;-86
2021/09/14 04:37:09;;;;;;;14.85;11.00;;;16.10;95.10;;;;;;5035480;28;20037;-86
2021/09/14 04:39:34;;;;;;;14.77;11.10;;;16.10;95.10;;;;;;5043379;28;20446;-85
2021/09/14 04:42:00;;;;;;;13.30;10.93;;;16.10;95.10;;;;;;5032722;28;20481;-86
2021/09/14 04:44:26;;;;;;;14.23;10.30;;;16.10;95.10;;;;;;5037370;28;20390;-86
2021/09/14 04:46:51;;;;;;;13.98;11.05;;;16.00;95.00;;;;;;5040639;28;20029;-86
2021/09/14 04:49:17;;;;;;;14.52;9.80;;;16.00;95.10;;;;;;5038173;28;20029;-86
2021/09/14 04:51:43;;;;;;;14.10;10.00;;;16.00;95.10;;;;;;5080603;28;20037;-88
2021/09/14 04:54:09;;;;;;;13.30;10.82;;;16.00;95.10;;;;;;5023396;28;20086;-89
2021/09/14 04:56:34;;;;;;;14.25;10.82;;;16.00;95.20;;;;;;5022430;28;20198;-89
2021/09/14 04:59:00;;;;;;;14.07;10.25;;;16.00;95.20;;;;;;5061287;28;20005;-88
2021/09/14 05:01:28;;;;;;;15.45;10.77;;;15.90;95.10;;;;;;5060493;28;20028;-87
2021/09/14 05:03:54;;;;;;;14.07;10.32;;;15.90;95.10;;;;;;5040121;28;20064;-88
2021/09/14 05:06:20;;;;;;;13.52;10.07;;;15.90;95.20;;;;;;5026397;28;20010;-90
2021/09/14 05:08:45;;;;;;;14.45;10.50;;;15.90;95.20;;;;;;5059954;28;20032;-92
2021/09/14 05:11:13;;;;;;;14.60;10.65;;;15.90;95.20;;;;;;5036698;28;20155;-87
2021/09/14 05:13:40;;;;;;;16.10;11.23;;;15.90;95.30;;;;;;5032632;28;20029;-86
2021/09/14 05:16:06;;;;;;;14.23;10.80;;;15.90;95.30;;;;;;5046360;28;20078;-86
2021/09/14 05:18:31;;;;;;;13.05;10.95;;;15.80;95.20;;;;;;5038114;28;20024;-85
2021/09/14 05:20:58;;;;;;;13.52;10.98;;;15.90;95.30;;;;;;5036604;28;20020;-89
2021/09/14 05:23:33;;;;;;;14.07;10.73;;;15.80;95.30;;;;;;5036898;28;20052;-86
2021/09/14 05:26:04;;;;;;;13.23;11.02;;;15.80;95.30;;;;;;5013936;28;20026;-87
2021/09/14 05:28:31;;;;;;;;;;;15.80;95.30;;;;;;5031548;28;20040;-88
2021/09/14 05:30:58;;;;;;;13.40;10.38;;;15.80;95.40;;;;;;5054296;28;20344;-86
2021/09/14 05:33:24;;;;;;;15.07;10.93;;;15.80;95.40;;;;;;5036385;28;20025;-86
2021/09/14 05:35:53;;;;;;;17.23;10.93;;;15.70;95.40;;;;;;5036419;28;20044;-87
2021/09/14 05:38:21;;;;;;;16.27;11.70;;;15.80;95.40;;;;;;5036634;28;20881;-86
2021/09/14 05:40:48;;;;;;;14.07;11.60;;;15.70;95.40;;;;;;5036547;28;20112;-86
2021/09/14 05:43:14;;;;;;;13.18;10.68;;;15.70;95.40;;;;;;5036659;28;20461;-86
2021/09/14 05:45:39;;;;;;;14.52;11.07;;;15.70;95.40;;;;;;5035604;28;20043;-86
2021/09/14 05:48:05;;;;;;;14.68;10.68;;;15.70;95.50;;;;;;5035755;28;20033;-86
2021/09/14 05:50:31;;;;;;;15.52;11.43;;;15.70;95.50;;;;;;5036086;28;20039;-88
2021/09/14 05:52:57;;;;;;;16.02;11.48;;;15.70;95.50;;;;;;5032114;28;20520;-87
2021/09/14 05:55:22;;;;;;;15.93;10.32;;;15.70;95.60;;;;;;5032550;28;20025;-86
2021/09/14 05:57:48;;;;;;;13.05;10.60;;;15.70;95.60;;;;;;5016117;28;20060;-85
2021/09/14 06:00:15;;;;;;;15.98;11.52;;;15.70;95.60;;;;;;5030658;28;20069;-86
2021/09/14 06:02:41;;;;;;;15.65;11.63;;;15.70;95.60;;;;;;5032138;28;20022;-86
2021/09/14 06:05:07;;;;;;;12.93;10.68;;;15.70;95.70;;;;;;5032858;28;20112;-85
2021/09/14 06:07:33;;;;;;;12.82;10.15;;;15.70;96.00;;;;;;5033711;28;20072;-85
2021/09/14 06:10:00;;;;;;;13.75;10.80;;;15.70;95.70;;;;;;5016649;28;20037;-88
2021/09/14 06:12:26;;;;;;;13.48;10.52;;;15.70;95.80;;;;;;5015801;28;20381;-89
2021/09/14 06:14:51;;;;;;;14.70;11.00;;;15.70;95.80;;;;;;5012103;28;20026;-87
2021/09/14 06:17:17;;;;;;;13.90;11.50;;;15.80;95.80;;;;;;5015484;28;20034;-87
2021/09/14 06:19:43;;;;;;;15.82;11.30;;;15.80;95.80;;;;;;5028946;28;20026;-87
2021/09/14 06:22:09;;;;;;;15.90;11.00;;;15.80;95.80;;;;;;5005960;28;20026;-87
2021/09/14 06:24:35;;;;;;;14.13;11.18;;;15.80;95.80;;;;;;5032233;28;20520;-87
2021/09/14 06:27:01;;;;;;;15.57;11.02;;;15.80;95.80;;;;;;5033595;28;20017;-88
2021/09/14 06:29:26;;;;;;;12.68;10.50;;;15.80;95.80;;;;;;5032490;28;20355;-86
2021/09/14 06:31:52;;;;;;;13.30;10.90;;;15.90;95.80;;;;;;5033026;28;20030;-87
2021/09/14 06:34:18;;;;;;;14.93;11.05;;;15.90;95.90;;;;;;5016354;28;20033;-86
2021/09/14 06:36:43;;;;;;;13.68;11.07;;;15.80;95.80;;;;;;5012993;28;20022;-87
2021/09/14 06:39:09;;;;;;;16.00;12.25;;;15.90;95.90;;;;;;5022381;28;20113;-87
2021/09/14 06:41:35;;;;;;;13.75;10.55;;;15.90;95.90;;;;;;5019035;28;20030;-86
2021/09/14 06:44:01;;;;;;;14.15;11.30;;;15.90;95.90;;;;;;5016600;28;20026;-87
2021/09/14 06:46:27;;;;;;;16.15;11.52;;;15.90;95.90;;;;;;5016176;28;20075;-86
2021/09/14 06:48:52;;;;;;;13.98;10.98;;;15.90;95.90;;;;;;5026122;28;20418;-87
2021/09/14 06:51:18;;;;;;;17.00;11.52;;;15.90;95.90;;;;;;5041476;28;20060;-87
2021/09/14 06:53:45;;;;;;;16.55;11.75;;;16.00;95.90;;;;;;5023540;28;20054;-87
2021/09/14 06:56:11;;;;;;;15.27;11.18;;;15.90;95.90;;;;;;5026605;28;20044;-86
2021/09/14 06:58:37;;;;;;;13.93;10.30;;;16.00;95.90;;;;;;5035873;28;20033;-86
2021/09/14 07:01:03;;;;;;;13.57;10.65;;;16.00;95.90;;;;;;5024133;28;20033;-87
2021/09/14 07:03:29;;;;;;;13.27;10.68;;;16.00;96.00;;;;;;5052194;28;20033;-86
2021/09/14 07:05:55;;;;;;;14.38;10.90;;;16.00;95.90;;;;;;5052270;28;20469;-87
2021/09/14 07:08:21;;;;;;;14.32;10.98;;;16.00;96.00;;;;;;5035671;28;20163;-87
2021/09/14 07:10:47;;;;;;;12.30;10.40;;;16.00;96.00;;;;;;5045164;28;20048;-86
2021/09/14 07:13:13;;;;;;;12.98;11.15;;;16.00;96.00;;;;;;5033044;28;20021;-87
2021/09/14 07:15:41;;;;;;;15.45;12.50;;;16.10;96.00;;;;;;5047474;28;20035;-86
2021/09/14 07:18:07;;;;;;;14.63;11.95;;;16.10;96.00;;;;;;5039158;28;20029;-92
2021/09/14 07:20:33;;;;;;;15.73;11.45;;;16.10;96.00;;;;;;5038915;28;20027;-87
2021/09/14 07:22:59;;;;;;;13.70;11.50;;;16.10;96.00;;;;;;5056742;28;20520;-86
2021/09/14 07:25:25;;;;;;;16.80;11.30;;;16.10;96.00;;;;;;5030274;28;20413;-87
2021/09/14 07:27:51;;;;;;;14.98;12.38;;;16.10;96.00;;;;;;5056765;28;20028;-86
2021/09/14 07:30:17;;;;;;;15.10;11.55;;;16.10;96.00;;;;;;5039160;28;20442;-86
2021/09/14 07:32:42;;;;;;;16.63;12.13;;;16.10;96.00;;;;;;5036317;28;20481;-86
2021/09/14 07:35:09;;;;;;;14.60;11.50;;;16.10;96.00;;;;;;5039018;28;20082;-90
2021/09/14 07:37:34;;;;;;;15.52;12.40;;;16.10;95.90;;;;;;5022176;28;20110;-87
2021/09/14 07:40:00;;;;;;;13.65;11.32;;;16.10;95.90;;;;;;5044439;28;20108;-86
2021/09/14 07:42:26;;;;;;;17.10;11.50;;;16.20;96.00;;;;;;5022131;28;20033;-85
2021/09/14 07:44:51;;;;;;;15.73;11.35;;;16.20;95.90;;;;;;5039950;28;20057;-90
2021/09/14 07:47:17;;;;;;;13.88;10.98;;;16.20;96.00;;;;;;5038879;28;20419;-89
2021/09/14 07:49:45;;;;;;;12.15;10.60;;;16.20;96.00;;;;;;5038663;28;20033;-86
2021/09/14 07:52:12;;;;;;;14.73;10.77;;;16.30;96.00;;;;;;5036422;28;20045;-87
2021/09/14 07:54:38;;;;;;;12.77;10.48;;;16.30;96.10;;;;;;5022143;28;20029;-86
2021/09/14 07:57:03;;;;;;;14.75;11.10;;;16.30;96.00;;;;;;5038215;28;20032;-86
2021/09/14 07:59:29;;;;;;;15.80;12.18;;;16.30;96.10;;;;;;5021665;28;20554;-86
2021/09/14 08:01:55;;;;;;;15.35;11.98;;;16.40;96.10;;;;;;5001930;28;20030;-87
2021/09/14 08:04:20;;;;;;;13.18;10.23;;;16.40;96.10;;;;;;5035330;28;20024;-87
2021/09/14 08:06:46;;;;;;;12.38;10.18;;;16.40;96.00;;;;;;5038067;28;20021;-86
2021/09/14 08:09:11;;;;;;;13.63;10.18;;;16.50;96.30;;;;;;5007637;28;20424;-86
2021/09/14 08:11:37;;;;;;;17.25;11.77;;;16.50;96.10;;;;;;5001685;28;20021;-86
2021/09/14 08:14:03;;;;;;;13.95;10.23;;;16.50;96.00;;;;;;5048507;28;20420;-87
2021/09/14 08:16:29;;;;;;;11.95;9.70;;;16.60;96.00;;;;;;5037589;28;20373;-85
2021/09/14 08:18:54;;;;;;;11.20;8.85;;;16.60;96.00;;;;;;5037742;28;20087;-87
2021/09/14 08:21:21;;;;;;;10.98;9.18;;;16.60;96.00;;;;;;5054682;28;20060;-86
2021/09/14 08:23:46;;;;;;;11.63;9.30;;;16.70;96.10;;;;;;5021684;28;20458;-86
2021/09/14 08:26:12;;;;;;;10.82;8.80;;;16.70;96.10;;;;;;5030020;28;20036;-86
2021/09/14 08:28:37;;;;;;;12.05;9.27;;;16.80;96.10;;;;;;5039697;28;20033;-87
2021/09/14 08:31:03;;;;;;;11.70;8.27;;;16.80;96.10;;;;;;5039788;28;20029;-89
2021/09/14 08:33:29;;;;;;;10.70;8.30;;;16.80;96.10;;;;;;5047719;28;20009;-90
2021/09/14 08:35:54;;;;;;;11.27;8.63;;;16.90;96.10;;;;;;5055898;28;20187;-90
2021/09/14 08:38:20;;;;;;;10.30;8.13;;;17.00;96.20;;;;;;5041020;28;20032;-92
2021/09/14 08:40:47;;;;;;;10.80;9.27;;;17.00;96.10;;;;;;5060518;28;20043;-90
2021/09/14 08:43:15;;;;;;;11.10;8.23;;;17.10;96.20;;;;;;5056599;28;20029;-88
2021/09/14 08:45:40;;;;;;;10.63;8.50;;;17.20;96.20;;;;;;5053261;28;20258;-80
2021/09/14 08:48:06;;;;;;;10.30;8.35;;;17.20;96.20;;;;;;5029462;28;20474;-81
2021/09/14 08:50:33;;;;;;;12.43;8.57;;;17.30;96.20;;;;;;5033103;28;20024;-81
2021/09/14 08:52:58;;;;;;;12.00;9.18;;;17.40;96.30;;;;;;5032713;28;20049;-81
2021/09/14 08:55:24;;;;;;;10.82;9.20;;;17.50;96.30;;;;;;5015151;28;20038;-81
2021/09/14 08:57:52;;;;;;;12.50;10.50;;;17.50;96.30;;;;;;5060265;28;20036;-90
2021/09/14 09:00:36;;;;;;;12.55;10.40;;;17.60;96.30;;;;;;5032178;28;20029;-87
2021/09/14 09:03:02;;;;;;;12.27;9.88;;;17.60;96.30;;;;;;5029284;28;20476;-90
2021/09/14 09:05:38;;;;;;;13.05;9.73;;;17.70;96.20;;;;;;5032794;28;20095;-88
2021/09/14 09:08:25;;;;;;;11.52;8.57;;;17.80;96.30;;;;;;5055314;28;20378;-89
2021/09/14 09:11:12;;;;;;;11.40;8.93;;;17.90;96.30;;;;;;5037717;28;20047;-89
2021/09/14 09:13:44;;;;;;;10.38;9.27;;;17.90;96.30;;;;;;5037170;28;20465;-89
2021/09/14 09:16:20;;;;;;;10.73;8.75;;;18.00;96.30;;;;;;5057626;28;20017;-90
2021/09/14 09:18:57;;;;;;;10.20;8.60;;;18.10;96.30;;;;;;5022475;28;20046;-91
2021/09/14 09:21:38;;;;;;;14.93;10.63;;;18.20;96.30;;;;;;5039291;28;20503;-89
2021/09/14 09:24:08;;;;;;;;;;;18.30;96.40;;;;;;5038173;28;20044;-89
2021/09/14 09:26:42;;;;;;;11.43;9.80;;;18.40;96.40;;;;;;5054494;28;19909;-89
2021/09/14 09:29:18;;;;;;;12.27;10.27;;;18.50;96.30;;;;;;5036606;28;20040;-89
2021/09/14 09:31:47;;;;;;;13.25;10.73;;;18.60;96.30;;;;;;5036805;28;20116;-89
2021/09/14 09:34:13;;;;;;;11.45;9.57;;;18.60;96.20;;;;;;5054991;28;20029;-89
2021/09/14 09:36:44;;;;;;;14.05;9.80;;;18.70;96.20;;;;;;5019572;28;20465;-89
2021/09/14 09:39:13;;;;;;;;;;;18.80;96.10;;;;;;5037520;28;20412;-89
2021/09/14 09:41:50;;;;;;;10.52;9.40;;;18.90;96.10;;;;;;5070194;28;19913;-91
2021/09/14 09:44:15;;;;;;;11.75;9.30;;;19.00;96.10;;;;;;5070665;28;20064;-90
2021/09/14 09:46:41;;;;;;;12.45;9.57;;;19.10;96.10;;;;;;5054012;28;20059;-90
2021/09/14 09:49:09;;;;;;;9.55;8.55;;;19.20;96.00;;;;;;5017491;28;20037;-91
2021/09/14 09:51:35;;;;;;;14.45;10.98;;;19.30;96.00;;;;;;5036189;28;20505;-89
2021/09/14 09:54:02;;;;;;;12.10;10.45;;;19.40;95.90;;;;;;5051866;28;20107;-92
2021/09/14 09:56:33;;;;;;;12.35;10.05;;;19.50;95.80;;;;;;5019272;28;20026;-90
2021/09/14 09:59:03;;;;;;;13.50;9.88;;;19.50;95.60;;;;;;5036303;28;20032;-89
2021/09/14 10:01:32;;;;;;;12.70;10.88;;;19.60;95.50;;;;;;5044699;28;20143;-89
2021/09/14 10:04:10;;;;;;;12.77;10.10;;;19.60;95.50;;;;;;5034782;28;20055;-82
2021/09/14 10:06:39;;;;;;;11.95;10.25;;;19.70;95.40;;;;;;5031988;28;20027;-83
2021/09/14 10:09:06;;;;;;;9.52;8.30;;;19.70;95.30;;;;;;5031653;28;20094;-85
2021/09/14 10:11:35;;;;;;;12.05;8.52;;;19.80;95.30;;;;;;5027658;28;20592;-84
2021/09/14 10:14:04;;;;;;;31.38;10.68;;;19.90;95.30;;;;;;5030048;28;20349;-90
2021/09/14 10:16:35;;;;;;;15.40;9.70;;;19.90;95.30;;;;;;5050255;28;20018;-91
2021/09/14 10:19:09;;;;;;;10.98;8.70;;;20.00;95.30;;;;;;5030107;28;20020;-90
2021/09/14 10:21:35;;;;;;;10.57;9.32;;;20.00;95.30;;;;;;5029023;28;20029;-91
2021/09/14 10:24:00;;;;;;;11.13;9.93;;;20.10;95.30;;;;;;5034187;28;20140;-90
2021/09/14 10:26:35;;;;;;;10.77;9.07;;;20.10;95.20;;;;;;5037188;28;20116;-91
2021/09/14 10:29:13;;;;;;;11.18;9.98;;;20.20;95.20;;;;;;5037233;28;20033;-91
2021/09/14 10:31:39;;;;;;;11.35;10.02;;;20.30;95.20;;;;;;5032954;28;20029;-90
2021/09/14 10:34:09;;;;;;;11.07;9.48;;;20.30;95.00;;;;;;5037505;28;20100;-89
2021/09/14 10:36:37;;;;;;;10.57;9.48;;;20.30;95.00;;;;;;5027643;28;20020;-91
2021/09/14 10:39:23;;;;;;;10.50;9.38;;;20.40;95.00;;;;;;5037862;28;20049;-90
2021/09/14 10:41:53;;;;;;;11.55;8.88;;;20.40;94.90;;;;;;5034359;28;20068;-91
2021/09/14 10:44:29;;;;;;;10.40;8.57;;;20.50;94.80;;;;;;5058961;28;20107;-91
2021/09/14 10:47:10;;;;;;;10.25;8.38;;;20.60;94.80;;;;;;5027150;28;20040;-86
2021/09/14 10:50:03;;;;;;;9.13;7.85;;;20.60;94.80;;;;;;5037875;28;20033;-85
2021/09/14 10:52:34;;;;;;;9.63;8.52;;;20.70;94.90;;;;;;5052065;28;20052;-85
2021/09/14 10:55:17;;;;;;;11.48;10.27;;;20.80;94.80;;;;;;5038290;28;20024;-85
2021/09/14 10:57:51;;;;;;;12.52;9.93;;;20.80;94.70;;;;;;5042493;28;20028;-84
2021/09/14 11:00:25;;;;;;;10.60;8.40;;;20.90;94.50;;;;;;5024453;28;20461;-85
2021/09/14 11:02:58;;;;;;;10.95;9.18;;;21.00;94.50;;;;;;5038180;28;20468;-85
2021/09/14 11:05:35;;;;;;;12.98;10.10;;;21.10;94.50;;;;;;5024639;28;20267;-86
2021/09/14 11:08:03;;;;;;;11.38;9.05;;;21.20;94.30;;;;;;5037953;28;20082;-84
2021/09/14 11:10:40;;;;;;;11.60;9.80;;;21.30;94.10;;;;;;5037093;28;20029;-85
2021/09/14 11:13:07;;;;;;;11.93;9.68;;;21.40;94.00;;;;;;5012135;28;20025;-90
2021/09/14 11:15:34;;;;;;;10.25;9.18;;;21.40;93.80;;;;;;5049415;28;20021;-89
2021/09/14 11:18:00;;;;;;;12.20;9.65;;;21.50;93.70;;;;;;5038258;28;20043;-89
2021/09/14 11:20:26;;;;;;;12.15;9.07;;;21.60;93.50;;;;;;5023075;28;20025;-90
2021/09/14 11:22:54;;;;;;;10.80;8.70;;;21.70;93.40;;;;;;5040604;28;20029;-88
2021/09/14 11:25:21;;;;;;;10.82;7.95;;;21.80;93.30;;;;;;5049214;28;20036;-88
2021/09/14 11:28:03;;;;;;;13.07;10.07;;;21.90;93.60;;;;;;5014942;28;20034;-88
2021/09/14 11:30:31;;;;;;;10.23;9.07;;;22.00;93.20;;;;;;5053733;28;20096;-90
2021/09/14 11:32:59;;;;;;;9.07;7.93;;;22.00;93.00;;;;;;5052898;28;20025;-89
2021/09/14 11:35:28;;;;;;;11.10;8.23;;;22.10;92.90;;;;;;5020581;28;20025;-88
2021/09/14 11:38:08;;;;;;;10.20;7.95;;;22.20;92.90;;;;;;5036045;28;20033;-89
2021/09/14 11:40:43;;;;;;;12.43;9.85;;;22.20;92.90;;;;;;5032169;28;20053;-88
2021/09/14 11:43:09;;;;;;;10.13;8.75;;;22.30;92.50;;;;;;5037408;28;20070;-88
2021/09/14 11:45:36;;;;;;;9.95;7.85;;;22.30;92.30;;;;;;5037896;28;20052;-88
2021/09/14 11:48:02;;;;;;;9.65;7.95;;;22.40;92.30;;;;;;5037997;28;20032;-89
2021/09/14 11:50:35;;;;;;;9.77;7.85;;;22.40;92.30;;;;;;5023214;28;20041;-88
2021/09/14 11:53:07;;;;;;;12.25;8.02;;;22.50;92.10;;;;;;5037420;28;20045;-90
2021/09/14 11:55:38;;;;;;;11.65;8.30;;;22.50;92.00;;;;;;5023064;28;20131;-87
2021/09/14 11:58:05;;;;;;;8.88;7.22;;;22.50;91.90;;;;;;5018871;28;20183;-88
2021/09/14 12:00:40;;;;;;;8.23;7.18;;;22.60;91.90;;;;;;5033865;28;20140;-87
2021/09/14 12:03:06;;;;;;;10.52;6.80;;;22.60;91.80;;;;;;5043678;28;20043;-91
2021/09/14 12:05:33;;;;;;;9.73;7.22;;;22.70;91.80;;;;;;5042186;28;20033;-87
2021/09/14 12:08:01;;;;;;;10.40;7.75;;;22.80;91.50;;;;;;5023649;28;20090;-90
2021/09/14 12:10:27;;;;;;;8.80;6.65;;;22.80;91.10;;;;;;5039291;28;20032;-88
2021/09/14 12:12:54;;;;;;;8.93;6.60;;;22.90;91.00;;;;;;5039197;28;20043;-89
2021/09/14 12:15:21;;;;;;;7.55;5.70;;;23.00;90.70;;;;;;5034187;28;20016;-87
2021/09/14 12:17:48;;;;;;;8.30;5.72;;;23.10;90.00;;;;;;5050452;28;20025;-86
2021/09/14 12:20:14;;;;;;;11.05;6.30;;;23.10;89.50;;;;;;5058533;28;20035;-87
2021/09/14 12:22:40;;;;;;;7.93;6.05;;;23.20;88.80;;;;;;5064311;28;20111;-82
2021/09/14 12:25:06;;;;;;;9.40;6.45;;;23.20;86.60;;;;;;5045729;28;20029;-90
2021/09/14 12:27:32;;;;;;;8.57;5.70;;;23.30;85.00;;;;;;5054884;28;20025;-88
2021/09/14 12:29:58;;;;;;;6.85;4.95;;;23.30;85.60;;;;;;5041927;28;20024;-90
2021/09/14 12:32:24;;;;;;;7.50;5.15;;;23.50;86.20;;;;;;5076918;28;20089;-90
2021/09/14 12:34:49;;;;;;;6.38;5.00;;;23.50;87.20;;;;;;5026410;28;20037;-93
2021/09/14 12:37:15;;;;;;;7.10;5.20;;;23.60;87.70;;;;;;5057515;28;20032;-90
2021/09/14 12:39:41;;;;;;;7.20;5.70;;;23.70;87.70;;;;;;5058068;28;20032;-96
2021/09/14 12:42:07;;;;;;;7.78;5.88;;;23.70;86.50;;;;;;5020381;28;20029;-94
2021/09/14 12:44:32;;;;;;;7.82;5.28;;;23.80;86.10;;;;;;5055935;28;20032;-92
2021/09/14 12:46:58;;;;;;;6.65;5.65;;;23.80;86.40;;;;;;5028297;28;20028;-96
2021/09/14 12:49:25;;;;;;;7.22;5.75;;;23.80;86.70;;;;;;5079409;22;20060;-89
2021/09/14 12:51:50;;;;;;;7.18;5.57;;;23.90;86.30;;;;;;5033608;28;20041;-89
2021/09/14 12:54:16;;;;;;;6.88;5.70;;;23.90;86.40;;;;;;5008317;28;20471;-89
2021/09/14 12:56:42;;;;;;;7.65;5.80;;;24.00;86.30;;;;;;5034059;28;20018;-89
2021/09/14 12:59:08;;;;;;;7.40;5.53;;;24.10;85.90;;;;;;5017217;28;20478;-89
2021/09/14 13:01:34;;;;;;;6.90;5.25;;;24.10;85.80;;;;;;5015065;28;20293;-90
2021/09/14 13:04:00;;;;;;;6.65;5.55;;;24.20;86.10;;;;;;4999192;28;20041;-90
2021/09/14 13:06:26;;;;;;;7.00;6.03;;;24.20;86.00;;;;;;5003085;28;20030;-90
2021/09/14 13:08:51;;;;;;;8.43;6.53;;;24.30;85.80;;;;;;5018584;28;20064;-90
2021/09/14 13:11:18;;;;;;;7.90;6.95;;;24.30;85.40;;;;;;4998105;28;20116;-91
2021/09/14 13:16:27;;;;;;;11.05;6.45;;;24.40;83.10;;;;;;5013765;28;20114;-91
2021/09/14 13:18:53;;;;;;;9.77;7.43;;;24.40;83.90;;;;;;4997767;28;20045;-89
2021/09/14 13:21:21;;;;;;;10.77;7.47;;;24.50;83.70;;;;;;5016558;28;20533;-90
2021/09/14 13:23:50;;;;;;;9.05;6.30;;;24.50;83.90;;;;;;5016687;28;20033;-90
2021/09/14 13:26:16;;;;;;;8.02;6.35;;;24.50;84.00;;;;;;5016731;28;20093;-90
2021/09/14 13:28:42;;;;;;;8.57;6.35;;;24.50;84.30;;;;;;5032430;28;20108;-90
2021/09/14 13:31:08;;;;;;;8.18;6.80;;;24.50;84.40;;;;;;5032949;28;20021;-89
2021/09/14 13:34:11;;;;;;;7.95;6.68;;;24.60;83.60;;;;;;5008176;28;20026;-90
2021/09/14 13:36:43;;;;;;;7.68;6.10;;;24.60;83.80;;;;;;5013810;28;20388;-89
2021/09/14 13:39:09;;;;;;;10.25;8.70;;;24.60;84.60;;;;;;5028523;28;20053;-89